Time;durP1;ratioP1;P1;durP2;ratioP2;P2;SDS_P1;SDS_P2;PMS_P1;PMS_P2;Temp;Humidity;BMP_temperature;BMP_pressure;BME280_temperature;BME280_humidity;BME280_pressure;Samples;Min_cycle;Max_cycle;Signal;HPM_P1;HPM_P2
2021/12/23 00:01:25;;;;;;;;;;;;;;;-0.77;69.32;101115.47;4934585;28;19950;-70
2021/12/23 00:03:50;;;;;;;;;;;;;;;-0.75;69.17;101105.88;4947125;28;20331;-70
2021/12/23 00:06:15;;;;;;;;;;;;;;;-0.74;69.21;101099.75;4956322;28;19920;-67
2021/12/23 00:08:41;;;;;;;;;;;;;;;-0.78;69.16;101098.16;4969958;28;19913;-70
2021/12/23 00:11:06;;;;;;;;;;;;;;;-0.80;69.55;101104.34;4955370;28;20109;-70
2021/12/23 00:13:34;;;;;;;;;;;;;;;-0.77;69.02;101094.69;4969640;28;19904;-70
2021/12/23 00:23:49;;;;;;;;;;;;;;;-0.87;69.92;101067.34;4966015;28;19966;-69
2021/12/23 00:26:14;;;;;;;;;;;;;;;-0.81;69.48;101055.88;4974756;28;19909;-69
2021/12/23 00:28:40;;;;;;;;;;;;;;;-0.82;69.77;101070.59;4973892;28;20873;-69
2021/12/23 00:31:06;;;;;;;;;;;;;;;-0.78;69.76;101072.19;4973969;28;20037;-68
2021/12/23 00:33:31;;;;;;;;;;;;;;;-0.78;69.34;101082.56;4974847;28;20013;-69
2021/12/23 00:35:56;;;;;;;;;;;;;;;-0.72;69.21;101087.56;4974671;28;20727;-68
2021/12/23 00:38:29;;;;;;;;;;;;;;;-0.71;69.29;101078.84;4971270;28;19904;-69
2021/12/23 00:40:55;;;;;;;;;;;;;;;-0.71;69.30;101065.84;4971799;28;19924;-68
2021/12/23 00:43:20;;;;;;;;;;;;;;;-0.72;69.45;101050.31;4975495;28;19900;-69
2021/12/23 00:45:45;;;;;;;;;;;;;;;-0.77;69.72;101053.09;4973266;28;19916;-69
2021/12/23 00:48:11;;;;;;;;;;;;;;;-0.74;69.55;101052.16;4974062;28;19919;-69
2021/12/23 00:50:36;;;;;;;;;;;;;;;-0.71;69.39;101055.47;4968977;28;19925;-69
2021/12/23 00:53:05;;;;;;;;;;;;;;;-0.69;69.40;101045.03;4956119;28;19949;-69
2021/12/23 00:55:31;;;;;;;;;;;;;;;-0.73;69.31;101048.66;4956829;28;20411;-70
2021/12/23 00:57:56;;;;;;;;;;;;;;;-0.74;69.17;101037.38;4969010;28;19909;-69
2021/12/23 01:00:21;;;;;;;;;;;;;;;-0.79;69.70;101034.13;4954625;28;19916;-69
2021/12/23 01:02:47;;;;;;;;;;;;;;;-0.77;69.79;101039.28;4955293;28;19905;-68
2021/12/23 01:05:13;;;;;;;;;;;;;;;-0.74;69.90;101029.59;4954367;28;20103;-68
2021/12/23 01:07:39;;;;;;;;;;;;;;;-0.77;70.05;101011.53;4962232;28;20391;-69
2021/12/23 01:10:04;;;;;;;;;;;;;;;-0.71;69.53;101008.69;4959859;28;20294;-71
2021/12/23 01:12:36;;;;;;;;;;;;;;;-0.75;69.58;101009.72;4976015;28;20597;-68
2021/12/23 01:16:05;;;;;;;;;;;;;;;-0.72;69.84;100999.22;4974928;28;19912;-69
2021/12/23 01:17:57;;;;;;;;;;;;;;;-0.73;69.76;100997.50;4965768;28;19968;-68
2021/12/23 01:20:27;;;;;;;;;;;;;;;-0.75;69.77;100988.94;4971996;28;20770;-69
2021/12/23 01:22:53;;;;;;;;;;;;;;;-0.70;69.48;100991.38;4978036;28;19904;-68
2021/12/23 01:25:18;;;;;;;;;;;;;;;-0.79;69.82;100999.50;4974489;28;19904;-70
2021/12/23 01:27:44;;;;;;;;;;;;;;;-0.78;70.11;100998.59;4973152;28;19914;-70
2021/12/23 01:30:09;;;;;;;;;;;;;;;-0.80;69.91;101003.03;4974552;28;19999;-68
2021/12/23 01:32:34;;;;;;;;;;;;;;;-0.82;70.20;100991.81;4976216;28;19912;-70
2021/12/23 01:34:59;;;;;;;;;;;;;;;-0.79;70.18;100995.16;4972558;28;19912;-68
2021/12/23 01:37:24;;;;;;;;;;;;;;;-0.78;69.85;100983.00;4964622;28;19961;-68
2021/12/23 01:39:50;;;;;;;;;;;;;;;-0.84;70.10;100978.06;4957500;28;20037;-68
2021/12/23 01:42:15;;;;;;;;;;;;;;;-0.97;70.59;100988.91;4972574;28;19933;-70
2021/12/23 01:44:40;;;;;;;;;;;;;;;-0.91;70.62;100982.63;4976261;28;19920;-68
2021/12/23 01:47:05;;;;;;;;;;;;;;;-0.87;70.46;100973.81;4976365;28;19923;-68
2021/12/23 01:49:31;;;;;;;;;;;;;;;-0.87;70.55;100973.81;4976931;28;19977;-68
2021/12/23 01:51:57;;;;;;;;;;;;;;;-0.84;70.59;100957.28;4976079;28;19917;-68
2021/12/23 01:54:22;;;;;;;;;;;;;;;-0.90;70.76;100960.94;4975743;28;19966;-68
2021/12/23 01:56:47;;;;;;;;;;;;;;;-0.81;70.69;100951.94;4974527;28;19909;-68
2021/12/23 01:59:12;;;;;;;;;;;;;;;-0.91;70.79;100941.06;4973356;28;19904;-68
2021/12/23 02:01:41;;;;;;;;;;;;;;;-0.96;71.11;100942.97;4977927;28;20210;-68
2021/12/23 02:04:06;;;;;;;;;;;;;;;-0.94;70.85;100934.22;4976992;28;20022;-68
2021/12/23 02:06:31;;;;;;;;;;;;;;;-0.91;70.87;100930.66;4954622;28;20230;-69
2021/12/23 02:08:57;;;;;;;;;;;;;;;-0.89;70.94;100927.13;4973081;28;19913;-69
2021/12/23 02:11:22;;;;;;;;;;;;;;;-0.88;70.93;100913.19;4973352;28;19924;-68
2021/12/23 02:13:47;;;;;;;;;;;;;;;-0.86;71.01;100931.34;4954910;28;19905;-68
2021/12/23 02:16:12;;;;;;;;;;;;;;;-0.87;70.85;100937.44;4958426;28;20724;-68
2021/12/23 02:18:38;;;;;;;;;;;;;;;-0.86;71.02;100936.53;4954351;28;20772;-69
2021/12/23 02:21:04;;;;;;;;;;;;;;;-0.72;70.26;100930.78;4960939;28;19935;-69
2021/12/23 02:23:29;;;;;;;;;;;;;;;-0.78;70.77;100931.88;4975944;28;19904;-68
2021/12/23 02:25:54;;;;;;;;;;;;;;;-0.79;70.49;100932.81;4975267;28;20545;-68
2021/12/23 02:28:20;;;;;;;;;;;;;;;-0.85;70.90;100930.41;4990583;28;20308;-69
2021/12/23 02:30:45;;;;;;;;;;;;;;;-0.91;71.08;100921.13;4976267;28;20341;-68
2021/12/23 02:33:10;;;;;;;;;;;;;;;-0.93;71.52;100916.88;4979576;28;19905;-67
2021/12/23 02:35:36;;;;;;;;;;;;;;;-0.87;71.39;100907.09;4969341;28;20302;-69
2021/12/23 02:38:01;;;;;;;;;;;;;;;-0.86;71.19;100910.56;4969825;28;19928;-70
2021/12/23 02:40:33;;;;;;;;;;;;;;;-0.80;71.13;100902.53;4974604;28;19909;-70
2021/12/23 02:43:11;;;;;;;;;;;;;;;-0.84;71.18;100893.16;4973230;28;20690;-68
2021/12/23 02:45:36;;;;;;;;;;;;;;;-0.83;71.16;100887.06;4958479;28;20345;-68
2021/12/23 02:48:01;;;;;;;;;;;;;;;-0.89;71.59;100882.94;4956862;28;19974;-70
2021/12/23 02:50:26;;;;;;;;;;;;;;;-0.82;71.57;100880.09;4955636;28;19916;-70
2021/12/23 02:52:52;;;;;;;;;;;;;;;-0.82;71.48;100867.94;4956006;28;20280;-70
2021/12/23 02:55:17;;;;;;;;;;;;;;;-0.83;71.64;100871.47;4958874;28;20496;-70
2021/12/23 02:57:42;;;;;;;;;;;;;;;-0.76;71.32;100866.84;4955042;28;20321;-70
2021/12/23 03:00:08;;;;;;;;;;;;;;;-0.77;71.51;100853.03;4955948;28;20302;-69
2021/12/23 03:02:36;;;;;;;;;;;;;;;-0.71;71.26;100844.97;4969268;28;19928;-69
2021/12/23 03:05:01;;;;;;;;;;;;;;;-0.65;71.28;100848.25;4969692;28;19974;-68
2021/12/23 03:07:26;;;;;;;;;;;;;;;-0.64;71.33;100849.94;4969496;28;19920;-69
2021/12/23 03:09:51;;;;;;;;;;;;;;;-0.62;71.56;100858.50;4971377;28;19954;-70
2021/12/23 03:12:17;;;;;;;;;;;;;;;-0.55;70.93;100865.16;4977816;28;19908;-68
2021/12/23 03:14:42;;;;;;;;;;;;;;;-0.54;70.92;100865.09;4976709;28;19913;-68
2021/12/23 03:17:07;;;;;;;;;;;;;;;-0.53;71.05;100871.13;4976747;28;19909;-68
2021/12/23 03:19:32;;;;;;;;;;;;;;;-0.48;70.94;100866.59;4974372;28;20449;-68
2021/12/23 03:21:57;;;;;;;;;;;;;;;-0.50;71.03;100858.00;4974443;28;19978;-68
2021/12/23 03:24:23;;;;;;;;;;;;;;;-0.43;70.70;100867.25;4974741;28;20093;-68
2021/12/23 03:26:48;;;;;;;;;;;;;;;-0.47;70.92;100852.69;4976150;28;19948;-68
2021/12/23 03:29:14;;;;;;;;;;;;;;;-0.41;71.14;100844.66;4979098;28;19972;-68
2021/12/23 03:31:39;;;;;;;;;;;;;;;-0.52;71.09;100855.47;4976503;28;19952;-68
2021/12/23 03:34:04;;;;;;;;;;;;;;;-0.36;70.66;100847.06;4972992;28;19909;-70
2021/12/23 03:36:29;;;;;;;;;;;;;;;-0.46;70.91;100849.19;4971666;28;19916;-70
2021/12/23 03:38:55;;;;;;;;;;;;;;;-0.39;70.92;100848.00;4951428;28;20074;-70
2021/12/23 03:41:20;;;;;;;;;;;;;;;-0.43;71.38;100848.22;4971841;28;19915;-69
2021/12/23 03:43:45;;;;;;;;;;;;;;;-0.46;71.09;100840.56;4956300;28;19916;-68
2021/12/23 03:46:10;;;;;;;;;;;;;;;-0.46;71.31;100838.78;4956435;28;19980;-68
2021/12/23 03:48:36;;;;;;;;;;;;;;;-0.42;71.00;100840.34;4956218;28;19905;-67
2021/12/23 03:51:01;;;;;;;;;;;;;;;-0.49;71.56;100827.66;4959003;28;20014;-67
2021/12/23 03:53:26;;;;;;;;;;;;;;;-0.54;71.39;100826.13;4956046;28;19905;-69
2021/12/23 03:55:51;;;;;;;;;;;;;;;-0.48;71.26;100819.81;4956652;28;19917;-71
2021/12/23 03:58:16;;;;;;;;;;;;;;;-0.54;71.60;100826.13;4936446;28;19905;-68
2021/12/23 04:00:42;;;;;;;;;;;;;;;-0.54;71.80;100835.66;4974079;28;19915;-68
2021/12/23 04:03:07;;;;;;;;;;;;;;;-0.59;72.07;100815.06;4991950;28;19904;-68
2021/12/23 04:05:32;;;;;;;;;;;;;;;-0.54;71.93;100812.25;4955196;28;19923;-68
2021/12/23 04:07:58;;;;;;;;;;;;;;;-0.51;72.03;100835.53;4969340;28;20331;-67
2021/12/23 04:10:23;;;;;;;;;;;;;;;-0.45;72.03;100856.09;4962954;28;20882;-67
2021/12/23 04:12:48;;;;;;;;;;;;;;;-0.45;71.74;100850.88;4955671;28;20514;-70
2021/12/23 04:15:13;;;;;;;;;;;;;;;-0.46;71.74;100843.97;4949606;28;20491;-68
2021/12/23 04:17:38;;;;;;;;;;;;;;;-0.46;72.02;100836.19;4952853;28;20888;-68
2021/12/23 04:20:17;;;;;;;;;;;;;;;-0.41;71.99;100835.97;4958151;28;20620;-71
2021/12/23 04:22:42;;;;;;;;;;;;;;;-0.50;71.88;100826.81;4951595;28;19917;-71
2021/12/23 04:25:08;;;;;;;;;;;;;;;-0.45;72.04;100817.09;4919507;28;20127;-69
2021/12/23 04:27:33;;;;;;;;;;;;;;;-0.42;71.88;100806.56;4945719;28;19920;-68
2021/12/23 04:29:58;;;;;;;;;;;;;;;-0.40;71.70;100802.13;4959378;28;20084;-69
2021/12/23 04:32:23;;;;;;;;;;;;;;;-0.48;72.17;100786.03;4972628;28;19908;-69
2021/12/23 04:34:48;;;;;;;;;;;;;;;-0.47;72.38;100787.69;4977967;28;19901;-68
2021/12/23 04:37:14;;;;;;;;;;;;;;;-0.43;72.40;100796.22;4943848;28;19913;-69
2021/12/23 04:39:39;;;;;;;;;;;;;;;-0.49;72.41;100792.13;4942485;28;19916;-68
2021/12/23 04:42:04;;;;;;;;;;;;;;;-0.46;72.25;100784.19;4945972;28;19900;-70
2021/12/23 04:44:29;;;;;;;;;;;;;;;-0.40;72.34;100770.91;4970859;28;19928;-69
2021/12/23 04:46:55;;;;;;;;;;;;;;;-0.45;72.29;100767.69;4972761;28;19916;-68
2021/12/23 04:49:22;;;;;;;;;;;;;;;-0.52;72.57;100772.31;4975487;28;19977;-67
2021/12/23 04:51:48;;;;;;;;;;;;;;;-0.54;72.58;100768.06;4989990;28;20097;-69
2021/12/23 04:54:13;;;;;;;;;;;;;;;-0.53;72.72;100769.78;4979215;28;20404;-69
2021/12/23 04:56:38;;;;;;;;;;;;;;;-0.52;72.86;100755.88;4976177;28;19900;-71
2021/12/23 04:59:03;;;;;;;;;;;;;;;-0.54;72.91;100752.47;4996504;28;19912;-68
2021/12/23 05:01:31;;;;;;;;;;;;;;;-0.59;73.18;100754.41;4983502;28;19912;-68
2021/12/23 05:03:56;;;;;;;;;;;;;;;-0.66;73.66;100753.00;4956162;28;19904;-69
2021/12/23 05:06:21;;;;;;;;;;;;;;;-0.59;73.13;100739.69;4947309;28;20013;-68
2021/12/23 05:08:47;;;;;;;;;;;;;;;-0.66;73.40;100727.88;4957868;28;20805;-71
2021/12/23 05:11:12;;;;;;;;;;;;;;;-0.75;73.57;100720.44;4957856;28;20233;-68
2021/12/23 05:13:37;;;;;;;;;;;;;;;-0.68;73.71;100708.03;4959667;28;19941;-69
2021/12/23 05:16:02;;;;;;;;;;;;;;;-0.81;74.13;100716.34;4981125;28;19936;-68
2021/12/23 05:18:28;;;;;;;;;;;;;;;-0.75;73.87;100723.91;4958929;28;20197;-71
2021/12/23 05:20:53;;;;;;;;;;;;;;;-0.69;73.94;100733.19;4976677;28;20001;-68
2021/12/23 05:23:18;;;;;;;;;;;;;;;-0.70;73.87;100742.72;4993334;28;19900;-70
2021/12/23 05:25:43;;;;;;;;;;;;;;;-0.74;73.88;100735.97;4977011;28;20755;-69
2021/12/23 05:28:09;;;;;;;;;;;;;;;-0.74;73.90;100720.38;4966786;28;20883;-69
2021/12/23 05:30:34;;;;;;;;;;;;;;;-0.77;73.98;100725.72;4950937;28;19913;-69
2021/12/23 05:32:59;;;;;;;;;;;;;;;-0.76;73.95;100727.41;4950568;28;19909;-70
2021/12/23 05:35:25;;;;;;;;;;;;;;;-0.78;74.38;100724.00;4952078;28;20331;-70
2021/12/23 05:37:50;;;;;;;;;;;;;;;-0.73;74.29;100714.28;4966321;28;20817;-68
2021/12/23 05:40:16;;;;;;;;;;;;;;;-0.78;74.28;100698.03;4965250;28;19908;-70
2021/12/23 05:42:42;;;;;;;;;;;;;;;-0.81;74.50;100703.38;4987800;28;19916;-68
2021/12/23 05:45:07;;;;;;;;;;;;;;;-0.82;74.62;100700.84;4992279;28;19925;-69
2021/12/23 05:47:32;;;;;;;;;;;;;;;-0.83;74.93;100719.91;4984973;28;19999;-69
2021/12/23 05:49:57;;;;;;;;;;;;;;;-0.80;74.66;100715.47;4983294;28;20663;-68
2021/12/23 05:52:23;;;;;;;;;;;;;;;-0.81;74.70;100726.75;4978453;28;20907;-68
2021/12/23 05:54:48;;;;;;;;;;;;;;;-0.76;74.54;100729.16;4974027;28;20877;-68
2021/12/23 05:57:13;;;;;;;;;;;;;;;-0.65;74.37;100719.13;4973380;28;19905;-69
2021/12/23 05:59:38;;;;;;;;;;;;;;;-0.72;74.47;100699.53;4986466;28;20017;-68
2021/12/23 06:02:05;;;;;;;;;;;;;;;-0.75;74.76;100687.53;4971851;28;19909;-67
2021/12/23 06:04:30;;;;;;;;;;;;;;;-0.68;74.43;100692.47;4977016;28;20019;-67
2021/12/23 06:06:55;;;;;;;;;;;;;;;-0.61;74.27;100680.88;4965421;28;20019;-68
2021/12/23 06:09:20;;;;;;;;;;;;;;;-0.67;74.47;100683.75;4987224;28;19966;-68
2021/12/23 06:11:45;;;;;;;;;;;;;;;-0.70;74.32;100680.38;4978273;28;20025;-68
2021/12/23 06:14:11;;;;;;;;;;;;;;;-0.75;74.69;100666.75;4975220;28;19913;-68
2021/12/23 06:16:36;;;;;;;;;;;;;;;-0.77;74.79;100663.34;4966349;28;19909;-68
2021/12/23 06:19:01;;;;;;;;;;;;;;;-0.75;74.81;100663.28;4962501;28;19913;-69
2021/12/23 06:21:29;;;;;;;;;;;;;;;-0.67;74.73;100668.16;4954560;28;19951;-68
2021/12/23 06:23:54;;;;;;;;;;;;;;;-0.67;74.69;100655.19;4976946;28;19916;-70
2021/12/23 06:26:20;;;;;;;;;;;;;;;-0.71;74.65;100650.09;4973518;28;20790;-68
2021/12/23 06:28:45;;;;;;;;;;;;;;;-0.67;74.56;100653.41;4975190;28;19924;-68
2021/12/23 06:31:10;;;;;;;;;;;;;;;-0.61;74.59;100653.13;4977528;28;19946;-67
2021/12/23 06:33:35;;;;;;;;;;;;;;;-0.57;74.38;100656.44;4971031;28;19909;-67
2021/12/23 06:36:01;;;;;;;;;;;;;;;-0.62;74.43;100650.59;4970343;28;20025;-68
2021/12/23 06:38:27;;;;;;;;;;;;;;;-0.58;74.54;100657.34;4969007;28;20010;-67
2021/12/23 06:40:52;;;;;;;;;;;;;;;-0.57;74.32;100644.28;4970827;28;19915;-67
2021/12/23 06:43:17;;;;;;;;;;;;;;;-0.54;74.20;100643.31;4987929;28;20391;-66
2021/12/23 06:45:42;;;;;;;;;;;;;;;-0.51;74.10;100632.78;4970866;28;19928;-67
2021/12/23 06:48:08;;;;;;;;;;;;;;;-0.52;74.55;100631.94;4969025;28;20029;-68
2021/12/23 06:50:33;;;;;;;;;;;;;;;-0.54;74.43;100630.31;4970048;28;19924;-68
2021/12/23 06:52:58;;;;;;;;;;;;;;;-0.51;73.92;100624.97;4962168;28;20412;-67
2021/12/23 06:55:23;;;;;;;;;;;;;;;-0.50;74.12;100639.66;4978133;28;20029;-67
2021/12/23 06:57:54;;;;;;;;;;;;;;;-0.43;74.06;100643.69;4960932;28;19935;-67
2021/12/23 07:00:20;;;;;;;;;;;;;;;-0.35;73.51;100649.38;4972887;28;20424;-67
2021/12/23 07:02:45;;;;;;;;;;;;;;;-0.31;73.40;100644.03;4955952;28;20033;-67
2021/12/23 07:05:10;;;;;;;;;;;;;;;-0.35;73.81;100643.34;4959034;28;19905;-68
2021/12/23 07:07:51;;;;;;;;;;;;;;;-0.33;73.46;100644.09;4996933;28;20704;-67
2021/12/23 07:10:16;;;;;;;;;;;;;;;-0.28;73.40;100639.56;4974756;28;19926;-65
2021/12/23 07:12:41;;;;;;;;;;;;;;;-0.26;73.33;100652.47;4970251;28;20040;-67
2021/12/23 07:15:07;;;;;;;;;;;;;;;-0.29;73.30;100663.03;4959909;28;20840;-67
2021/12/23 07:17:32;;;;;;;;;;;;;;;-0.27;73.30;100650.78;4977464;28;19926;-67
2021/12/23 07:19:57;;;;;;;;;;;;;;;-0.28;73.35;100654.28;4973236;28;20009;-66
2021/12/23 07:22:22;;;;;;;;;;;;;;;-0.21;73.06;100653.13;4964479;28;20005;-68
2021/12/23 07:24:48;;;;;;;;;;;;;;;-0.22;73.20;100643.63;4974334;28;19973;-68
2021/12/23 07:27:13;;;;;;;;;;;;;;;-0.14;73.13;100638.06;4975085;28;20017;-67
2021/12/23 07:29:38;;;;;;;;;;;;;;;-0.13;73.07;100638.00;4974946;28;19934;-67
2021/12/23 07:32:05;;;;;;;;;;;;;;;-0.08;73.08;100658.59;4977527;28;19912;-67
2021/12/23 07:34:31;;;;;;;;;;;;;;;-0.18;73.25;100660.78;4979991;28;19901;-67
2021/12/23 07:36:56;;;;;;;;;;;;;;;-0.18;72.88;100660.78;4958238;28;20132;-67
2021/12/23 07:39:21;;;;;;;;;;;;;;;-0.13;72.79;100651.00;4980579;28;19916;-67
2021/12/23 07:41:46;;;;;;;;;;;;;;;-0.05;72.60;100656.69;4976789;28;20378;-67
2021/12/23 07:44:20;;;;;;;;;;;;;;;-0.10;73.07;100640.47;4997364;28;20386;-68
2021/12/23 07:46:45;;;;;;;;;;;;;;;-0.13;72.90;100645.78;4979964;28;19912;-68
2021/12/23 07:49:10;;;;;;;;;;;;;;;-0.20;73.21;100647.84;4976206;28;19912;-66
2021/12/23 07:51:35;;;;;;;;;;;;;;;-0.04;72.22;100640.19;4973257;28;19985;-66
2021/12/23 07:54:01;;;;;;;;;;;;;;;-0.11;72.66;100635.31;4971072;28;20297;-68
2021/12/23 07:56:26;;;;;;;;;;;;;;;-0.07;72.60;100648.13;4969789;28;20044;-68
2021/12/23 07:58:53;;;;;;;;;;;;;;;-0.08;72.47;100646.44;4974484;28;19913;-68
2021/12/23 08:01:18;;;;;;;;;;;;;;;-0.05;72.43;100648.06;4960260;28;20308;-67
2021/12/23 08:03:43;;;;;;;;;;;;;;;-0.01;72.28;100642.63;4981844;28;19905;-67
2021/12/23 08:06:08;;;;;;;;;;;;;;;-0.01;71.86;100642.63;4960287;28;19962;-67
2021/12/23 08:08:34;;;;;;;;;;;;;;;0.10;71.74;100643.88;4973560;28;19937;-68
2021/12/23 08:10:59;;;;;;;;;;;;;;;0.02;71.87;100639.03;4949423;28;19986;-66
2021/12/23 08:13:24;;;;;;;;;;;;;;;0.07;71.79;100638.81;4956794;28;19905;-67
2021/12/23 08:15:49;;;;;;;;;;;;;;;0.10;71.58;100620.47;4974654;28;19937;-69
2021/12/23 08:18:15;;;;;;;;;;;;;;;0.06;71.95;100627.59;4983641;28;20025;-66
2021/12/23 08:20:41;;;;;;;;;;;;;;;0.06;71.83;100626.75;4981169;28;21236;-66
2021/12/23 08:23:06;;;;;;;;;;;;;;;0.19;70.91;100614.84;4998372;28;20325;-67
2021/12/23 08:25:31;;;;;;;;;;;;;;;0.36;70.99;100624.44;4983034;28;20742;-70
2021/12/23 08:27:56;;;;;;;;;;;;;;;0.23;70.32;100618.97;4986321;28;20308;-67
2021/12/23 08:30:22;;;;;;;;;;;;;;;0.26;70.76;100615.38;4971223;28;20124;-67
2021/12/23 08:32:48;;;;;;;;;;;;;;;0.33;70.09;100617.59;4941652;28;19908;-66
2021/12/23 08:35:13;;;;;;;;;;;;;;;0.34;69.81;100621.06;4964606;28;20193;-67
2021/12/23 08:37:39;;;;;;;;;;;;;;;0.29;70.59;100630.84;4979093;28;20668;-68
2021/12/23 08:40:05;;;;;;;;;;;;;;;0.34;70.33;100626.28;4986313;28;19948;-69
2021/12/23 08:42:30;;;;;;;;;;;;;;;0.48;69.87;100633.38;4982778;28;19915;-68
2021/12/23 08:44:56;;;;;;;;;;;;;;;0.44;69.34;100626.69;4953878;28;19916;-68
2021/12/23 08:47:21;;;;;;;;;;;;;;;0.46;69.39;100623.06;4977208;28;19923;-69
2021/12/23 08:49:46;;;;;;;;;;;;;;;0.53;69.08;100633.19;4963396;28;19924;-68
2021/12/23 08:52:12;;;;;;;;;;;;;;;0.51;69.02;100635.88;4976190;28;19912;-68
2021/12/23 08:54:37;;;;;;;;;;;;;;;0.55;68.74;100637.41;4990783;28;20296;-68
2021/12/23 08:57:04;;;;;;;;;;;;;;;0.62;68.47;100625.78;4957782;28;19913;-68
2021/12/23 08:59:29;;;;;;;;;;;;;;;0.60;68.88;100621.56;4960935;28;20845;-68
2021/12/23 09:01:55;;;;;;;;;;;;;;;0.60;68.65;100616.34;4972246;28;19920;-68
2021/12/23 09:04:21;;;;;;;;;;;;;;;0.63;68.46;100617.00;4979353;28;19904;-68
2021/12/23 09:06:46;;;;;;;;;;;;;;;0.59;68.69;100618.13;4979454;28;19945;-67
2021/12/23 09:09:11;;;;;;;;;;;;;;;0.63;68.34;100622.22;4967476;28;20001;-67
2021/12/23 09:11:37;;;;;;;;;;;;;;;0.68;69.08;100617.63;4978509;28;20852;-70
2021/12/23 09:14:02;;;;;;;;;;;;;;;0.71;69.52;100610.63;4975456;28;20244;-70
2021/12/23 09:16:27;;;;;;;;;;;;;;;0.64;69.29;100608.28;4982356;28;20897;-67
2021/12/23 09:18:52;;;;;;;;;;;;;;;0.66;69.15;100608.22;4963343;28;19904;-67
2021/12/23 09:21:18;;;;;;;;;;;;;;;0.64;69.17;100613.50;4972967;28;19945;-67
2021/12/23 09:23:43;;;;;;;;;;;;;;;0.75;68.92;100615.56;4963894;28;19912;-67
2021/12/23 09:26:10;;;;;;;;;;;;;;;0.84;69.43;100625.53;4968903;28;19938;-70
2021/12/23 09:34:06;;;;;;;;;;;;;;;0.79;69.00;100614.50;4979746;28;19966;-66
2021/12/23 09:36:31;;;;;;;;;;;;;;;0.93;68.85;100618.16;4974440;28;19912;-68
2021/12/23 09:38:56;;;;;;;;;;;;;;;0.98;68.72;100610.97;4988057;28;19912;-66
2021/12/23 09:41:22;;;;;;;;;;;;;;;1.09;67.70;100597.41;4968293;28;19998;-69
2021/12/23 09:43:48;;;;;;;;;;;;;;;1.13;67.90;100598.91;4968443;28;19954;-69
2021/12/23 09:46:14;;;;;;;;;;;;;;;1.21;67.71;100594.13;4968896;28;19927;-70
2021/12/23 09:48:42;;;;;;;;;;;;;;;1.13;67.62;100586.72;4968920;28;20747;-67
2021/12/23 09:51:07;;;;;;;;;;;;;;;1.23;67.95;100583.63;4951705;28;20425;-67
2021/12/23 09:53:33;;;;;;;;;;;;;;;1.33;67.42;100580.44;4968451;28;19956;-67
2021/12/23 09:55:58;;;;;;;;;;;;;;;1.51;67.18;100575.19;4972692;28;19908;-68
2021/12/23 09:58:23;;;;;;;;;;;;;;;1.67;66.39;100565.59;4956198;28;20157;-67
2021/12/23 10:00:48;;;;;;;;;;;;;;;1.73;65.99;100568.81;4971977;28;20678;-69
2021/12/23 10:03:14;;;;;;;;;;;;;;;1.63;65.91;100558.84;4967879;28;19953;-67
2021/12/23 10:05:39;;;;;;;;;;;;;;;1.66;65.06;100558.69;4972410;28;20009;-66
2021/12/23 10:08:06;;;;;;;;;;;;;;;1.81;65.62;100551.78;4963908;28;19904;-66
2021/12/23 10:10:44;;;;;;;;;;;;;;;1.93;64.84;100558.09;4953483;28;19931;-67
2021/12/23 10:27:49;;;;;;;;;;;;;;;1.97;63.94;100541.31;4963467;28;20778;-68
2021/12/23 10:32:37;;;;;;;;;;;;;;;1.91;64.34;100543.47;4972292;28;19974;-67
2021/12/23 10:38:15;;;;;;;;;;;;;;;2.14;63.17;100518.66;4983075;28;20897;-70
2021/12/23 10:40:42;;;;;;;;;;;;;;;2.35;62.47;100517.41;4964199;28;20020;-67
2021/12/23 10:43:13;;;;;;;;;;;;;;;2.39;62.04;100513.69;4977576;28;20284;-69
2021/12/23 10:45:45;;;;;;;;;;;;;;;2.43;62.23;100503.09;4976932;28;20288;-69
2021/12/23 10:48:13;;;;;;;;;;;;;;;2.62;61.87;100487.97;4976855;28;19977;-69
2021/12/23 10:50:57;;;;;;;;;;;;;;;2.67;61.44;100485.94;4985886;28;19916;-68
2021/12/23 10:59:14;;;;;;;;;;;;;;;2.57;61.38;100469.16;5003114;28;19923;-68
2021/12/23 11:01:59;;;;;;;;;;;;;;;2.50;61.55;100463.44;4986048;28;20009;-68
2021/12/23 11:04:24;;;;;;;;;;;;;;;2.54;61.45;100456.28;4978474;28;19915;-69
2021/12/23 11:06:57;;;;;;;;;;;;;;;2.54;61.95;100451.88;4990468;28;20420;-69
2021/12/23 11:09:42;;;;;;;;;;;;;;;2.57;60.84;100456.91;4967898;28;19913;-68
2021/12/23 11:27:25;;;;;;;;;;;;;;;2.67;61.57;100438.91;4986734;28;20681;-69
2021/12/23 11:37:43;;;;;;;;;;;;;;;3.43;59.32;100418.53;4984046;28;20392;-68
2021/12/23 11:40:23;;;;;;;;;;;;;;;3.03;59.88;100415.81;4980305;28;19977;-67
2021/12/23 11:45:32;;;;;;;;;;;;;;;3.03;60.98;100406.22;4978316;28;19920;-68
2021/12/23 11:47:58;;;;;;;;;;;;;;;2.92;60.66;100406.06;4989205;28;19946;-68
2021/12/23 11:50:30;;;;;;;;;;;;;;;2.90;61.45;100400.91;4981431;28;19920;-68
2021/12/23 11:52:56;;;;;;;;;;;;;;;2.88;60.96;100394.13;4986553;28;19901;-68
2021/12/23 11:55:21;;;;;;;;;;;;;;;2.92;61.43;100391.19;4986670;28;19911;-70
2021/12/23 11:57:46;;;;;;;;;;;;;;;2.98;61.84;100391.75;4985098;28;19916;-70
2021/12/23 12:02:40;;;;;;;;;;;;;;;3.14;61.11;100368.09;4966985;28;19905;-67
2021/12/23 12:05:06;;;;;;;;;;;;;;;3.13;61.81;100376.88;4968530;28;19904;-68
2021/12/23 12:07:31;;;;;;;;;;;;;;;3.21;61.72;100364.97;4980363;28;19993;-68
2021/12/23 12:09:56;;;;;;;;;;;;;;;3.23;61.99;100362.28;4983944;28;19932;-68
2021/12/23 12:12:21;;;;;;;;;;;;;;;3.21;61.37;100364.97;4978151;28;19913;-68
2021/12/23 12:14:47;;;;;;;;;;;;;;;3.14;62.25;100348.00;4963679;28;19916;-69
2021/12/23 12:17:18;;;;;;;;;;;;;;;3.20;63.01;100365.06;4965585;28;20702;-68
2021/12/23 12:19:50;;;;;;;;;;;;;;;3.18;62.46;100361.72;4983086;28;19970;-68
2021/12/23 12:22:35;;;;;;;;;;;;;;;3.13;62.78;100350.72;4977039;28;19995;-69
2021/12/23 12:25:01;;;;;;;;;;;;;;;3.15;62.31;100348.88;4985646;28;20009;-68
2021/12/23 12:27:27;;;;;;;;;;;;;;;3.12;62.95;100349.03;4988429;28;19912;-68
2021/12/23 12:29:58;;;;;;;;;;;;;;;3.08;63.71;100335.34;4984279;28;19950;-69
2021/12/23 12:32:33;;;;;;;;;;;;;;;3.12;63.66;100338.56;4986577;28;20009;-69
2021/12/23 12:34:59;;;;;;;;;;;;;;;3.10;63.94;100338.69;4980490;28;19913;-68
2021/12/23 12:37:35;;;;;;;;;;;;;;;3.15;63.49;100327.94;4985014;28;19904;-69
2021/12/23 12:40:00;;;;;;;;;;;;;;;3.20;63.91;100310.16;4969413;28;19915;-69
2021/12/23 12:42:29;;;;;;;;;;;;;;;3.19;64.54;100314.56;4989323;28;20156;-68
2021/12/23 12:45:02;;;;;;;;;;;;;;;3.27;63.77;100311.44;4988687;28;20123;-68
2021/12/23 12:47:32;;;;;;;;;;;;;;;3.25;63.73;100310.72;4975644;28;19912;-68
2021/12/23 12:50:07;;;;;;;;;;;;;;;3.29;63.65;100306.97;5008821;28;19927;-68
2021/12/23 12:52:33;;;;;;;;;;;;;;;3.30;64.24;100295.56;4988010;28;19916;-68
2021/12/23 12:54:59;;;;;;;;;;;;;;;3.36;63.70;100294.31;4991284;28;19915;-69
2021/12/23 12:57:32;;;;;;;;;;;;;;;3.26;63.59;100297.53;4990779;28;20975;-69
2021/12/23 13:00:00;;;;;;;;;;;;;;;3.30;64.29;100289.47;4986707;28;20327;-68
2021/12/23 13:02:26;;;;;;;;;;;;;;;3.38;64.02;100282.81;5003350;28;19961;-69
2021/12/23 13:05:12;;;;;;;;;;;;;;;3.52;64.11;100273.22;4989536;28;19952;-68
2021/12/23 13:07:38;;;;;;;;;;;;;;;3.60;63.63;100276.97;4986232;28;19927;-68
2021/12/23 13:10:06;;;;;;;;;;;;;;;3.71;63.73;100263.19;4973346;28;20293;-68
2021/12/23 13:12:51;;;;;;;;;;;;;;;3.82;63.82;100261.59;4986666;28;19989;-68
2021/12/23 13:15:20;;;;;;;;;;;;;;;3.94;63.66;100253.72;4985256;28;19915;-71
2021/12/23 13:17:47;;;;;;;;;;;;;;;4.05;63.21;100252.16;4986245;28;20009;-69
2021/12/23 13:20:12;;;;;;;;;;;;;;;4.03;63.40;100241.78;4985186;28;20641;-69
2021/12/23 13:22:39;;;;;;;;;;;;;;;4.09;63.54;100246.59;4990706;28;19915;-68
2021/12/23 13:25:04;;;;;;;;;;;;;;;4.19;63.46;100245.94;4984612;28;19908;-68
2021/12/23 13:27:29;;;;;;;;;;;;;;;4.11;63.87;100234.22;4972717;28;19931;-68
2021/12/23 13:30:05;;;;;;;;;;;;;;;4.08;64.22;100229.22;4983705;28;20844;-67
2021/12/23 13:32:30;;;;;;;;;;;;;;;4.01;64.37;100220.13;4968189;28;19917;-68
2021/12/23 13:34:56;;;;;;;;;;;;;;;4.01;64.54;100208.81;4968447;28;19915;-68
2021/12/23 13:37:21;;;;;;;;;;;;;;;4.08;64.39;100213.50;4966530;28;20850;-68
2021/12/23 13:39:46;;;;;;;;;;;;;;;4.06;64.80;100214.56;4982689;28;20314;-69
2021/12/23 13:42:12;;;;;;;;;;;;;;;4.04;65.10;100211.22;4962577;28;20466;-69
2021/12/23 13:44:38;;;;;;;;;;;;;;;4.01;64.97;100201.78;4955056;28;19921;-65